createdAt,value
2018-08-23T00:01:33.594Z,25.80
2018-08-23T00:04:08.832Z,25.70
2018-08-23T00:06:40.799Z,25.70
2018-08-23T00:09:10.178Z,25.70
2018-08-23T00:11:45.789Z,25.70
2018-08-23T00:14:16.031Z,25.70
2018-08-23T00:16:46.195Z,25.70
2018-08-23T00:19:16.438Z,25.70
2018-08-23T00:21:48.438Z,25.70
2018-08-23T00:24:20.803Z,25.60
2018-08-23T00:26:54.975Z,25.70
2018-08-23T00:29:29.609Z,25.60
2018-08-23T00:32:03.656Z,25.60
2018-08-23T00:34:37.062Z,25.50
2018-08-23T00:37:06.992Z,25.50
2018-08-23T00:39:36.226Z,25.40
2018-08-23T00:42:08.375Z,25.40
2018-08-23T00:45:01.563Z,25.40
2018-08-23T00:47:32.220Z,25.40
2018-08-23T00:50:01.607Z,25.40
2018-08-23T00:52:44.871Z,25.30
2018-08-23T00:55:22.008Z,25.30
2018-08-23T00:57:51.347Z,25.30
2018-08-23T01:00:22.035Z,25.30
2018-08-23T01:02:52.987Z,25.20
2018-08-23T01:05:27.467Z,25.10
2018-08-23T01:07:56.727Z,25.00
2018-08-23T01:10:26.019Z,25.00
2018-08-23T01:12:59.750Z,25.00
2018-08-23T01:15:29.936Z,24.90
2018-08-23T01:18:15.088Z,25.00
2018-08-23T01:20:45.363Z,24.90
2018-08-23T01:23:14.647Z,24.90
2018-08-23T01:25:45.018Z,24.80
2018-08-23T01:28:14.286Z,24.80
2018-08-23T01:30:44.119Z,24.80
2018-08-23T01:33:18.979Z,24.80
2018-08-23T01:35:49.588Z,24.70
2018-08-23T01:38:19.224Z,24.60
2018-08-23T01:40:59.030Z,24.60
2018-08-23T01:43:28.243Z,24.60
2018-08-23T01:45:57.564Z,24.60
2018-08-23T01:48:26.833Z,24.60
2018-08-23T01:50:56.063Z,24.60
2018-08-23T01:53:29.519Z,24.50
2018-08-23T01:55:58.723Z,24.40
2018-08-23T01:58:27.980Z,24.30
2018-08-23T02:01:14.151Z,24.10
2018-08-23T02:03:43.755Z,24.10
2018-08-23T02:06:12.971Z,24.00
2018-08-23T02:08:44.918Z,23.90
2018-08-23T02:11:14.172Z,24.00
2018-08-23T02:13:48.036Z,24.10
2018-08-23T02:16:17.259Z,24.10
2018-08-23T02:18:46.563Z,24.10
2018-08-23T02:21:15.763Z,24.10
2018-08-23T02:23:48.768Z,24.10
2018-08-23T02:26:18.126Z,24.10
2018-08-23T02:28:48.892Z,24.10
2018-08-23T02:31:18.363Z,24.10
2018-08-23T02:33:47.699Z,24.10
2018-08-23T02:36:17.346Z,24.10
2018-08-23T02:38:58.323Z,24.10
2018-08-23T02:41:27.752Z,24.10
2018-08-23T02:43:56.919Z,24.10
2018-08-23T02:46:27.251Z,24.00
2018-08-23T02:48:56.648Z,24.00
2018-08-23T02:51:38.799Z,24.00
2018-08-23T02:54:11.159Z,24.00
2018-08-23T02:56:40.940Z,24.00
2018-08-23T02:59:10.282Z,23.90
2018-08-23T03:01:49.417Z,23.90
2018-08-23T03:04:22.742Z,23.90
2018-08-23T03:06:57.287Z,23.90
2018-08-23T03:09:31.374Z,23.80
2018-08-23T03:12:01.934Z,23.80
2018-08-23T03:14:31.543Z,23.70
2018-08-23T03:18:04.716Z,23.70
2018-08-23T03:20:34.547Z,23.60
2018-08-23T03:23:03.852Z,23.60
2018-08-23T03:25:33.071Z,23.50
2018-08-23T03:28:02.397Z,23.50
2018-08-23T03:30:31.662Z,23.40
2018-08-23T03:33:00.945Z,23.30
2018-08-23T03:35:30.194Z,23.40
2018-08-23T03:37:59.527Z,23.40
2018-08-23T03:40:28.811Z,23.30
2018-08-23T03:42:58.082Z,23.30
2018-08-23T03:45:28.292Z,23.20
2018-08-23T03:47:57.627Z,23.20
2018-08-23T03:50:27.095Z,23.20
2018-08-23T03:52:57.471Z,23.20
2018-08-23T03:55:27.070Z,23.20
2018-08-23T03:58:03.273Z,23.20
2018-08-23T04:00:37.728Z,23.20
2018-08-23T04:03:11.135Z,23.20
2018-08-23T04:05:41.059Z,23.20
2018-08-23T04:08:10.387Z,23.10
2018-08-23T04:10:39.679Z,23.10
2018-08-23T04:13:09.003Z,23.10
2018-08-23T04:15:38.557Z,23.10
2018-08-23T04:18:13.184Z,23.10
2018-08-23T04:20:54.161Z,23.10
2018-08-23T04:23:23.445Z,23.10
2018-08-23T04:25:52.690Z,23.00
2018-08-23T04:28:22.075Z,23.00
2018-08-23T04:30:51.346Z,23.00
2018-08-23T04:33:20.681Z,23.00
2018-08-23T04:35:49.975Z,22.90
2018-08-23T04:38:19.582Z,22.80
2018-08-23T04:40:57.783Z,22.70
2018-08-23T04:43:27.103Z,22.70
2018-08-23T04:45:56.364Z,22.60
2018-08-23T04:48:25.743Z,22.50
2018-08-23T04:50:55.007Z,22.50
2018-08-23T04:53:24.571Z,22.40
2018-08-23T04:55:53.886Z,22.20
2018-08-23T04:58:23.144Z,21.90
2018-08-23T05:00:52.863Z,21.90
2018-08-23T05:03:22.244Z,21.80
2018-08-23T05:05:51.638Z,21.70
2018-08-23T05:08:20.956Z,21.70
2018-08-23T05:10:50.977Z,21.70
2018-08-23T05:13:20.293Z,21.80
2018-08-23T05:15:49.656Z,21.70
2018-08-23T05:18:19.105Z,21.70
2018-08-23T05:20:48.718Z,21.70
2018-08-23T05:23:19.956Z,21.50
2018-08-23T05:25:49.139Z,21.50
2018-08-23T05:28:19.814Z,21.80
2018-08-23T05:30:49.797Z,22.00
2018-08-23T05:33:20.278Z,22.00
2018-08-23T05:35:49.618Z,21.90
2018-08-23T05:38:19.773Z,21.80
2018-08-23T05:40:54.706Z,21.70
2018-08-23T05:43:24.194Z,21.70
2018-08-23T05:45:54.771Z,21.60
2018-08-23T05:48:32.174Z,21.70
2018-08-23T05:51:11.861Z,21.80
2018-08-23T05:53:47.698Z,21.90
2018-08-23T05:56:18.959Z,22.00
2018-08-23T05:58:48.343Z,22.20
2018-08-23T06:01:17.608Z,22.30
2018-08-23T06:03:46.841Z,22.50
2018-08-23T06:06:16.448Z,22.60
2018-08-23T06:08:54.362Z,22.50
2018-08-23T06:11:23.698Z,22.70
2018-08-23T06:13:52.912Z,22.80
2018-08-23T06:16:22.234Z,22.60
2018-08-23T06:18:51.654Z,22.60
2018-08-23T06:21:20.981Z,22.70
2018-08-23T06:23:53.890Z,22.70
2018-08-23T06:26:46.179Z,22.80
2018-08-23T06:29:19.673Z,23.00
2018-08-23T06:31:58.762Z,23.10
2018-08-23T06:34:32.905Z,23.10
2018-08-23T06:37:02.137Z,23.20
2018-08-23T06:39:31.423Z,23.10
2018-08-23T06:42:02.018Z,23.20
2018-08-23T06:44:44.626Z,23.30
2018-08-23T06:47:16.343Z,23.30
2018-08-23T06:49:46.969Z,23.40
2018-08-23T06:52:27.392Z,23.50
2018-08-23T06:54:56.884Z,23.50
2018-08-23T06:57:34.584Z,23.30
2018-08-23T07:00:03.900Z,23.30
2018-08-23T07:02:33.260Z,23.00
2018-08-23T07:05:02.924Z,22.80
2018-08-23T07:07:32.267Z,22.90
2018-08-23T07:10:01.542Z,22.90
2018-08-23T07:12:30.800Z,23.00
2018-08-23T07:15:00.011Z,23.10
2018-08-23T07:17:30.491Z,23.10
2018-08-23T07:20:02.675Z,22.90
2018-08-23T07:22:34.036Z,23.00
2018-08-23T07:25:03.329Z,23.30
2018-08-23T07:27:32.600Z,23.40
2018-08-23T07:30:01.903Z,23.40
2018-08-23T07:32:32.198Z,23.60
2018-08-23T07:35:06.825Z,23.50
2018-08-23T07:37:37.334Z,23.40
2018-08-23T07:40:11.147Z,23.80
2018-08-23T07:42:41.585Z,23.70
2018-08-23T07:45:11.234Z,24.00
2018-08-23T07:47:45.018Z,24.10
2018-08-23T07:50:14.353Z,24.20
2018-08-23T07:52:44.867Z,24.30
2018-08-23T07:55:14.191Z,24.70
2018-08-23T07:57:43.830Z,24.90
2018-08-23T08:00:40.906Z,25.10
2018-08-23T08:03:12.429Z,24.70
2018-08-23T08:05:43.019Z,24.80
2018-08-23T08:08:13.183Z,24.70
2018-08-23T08:10:44.669Z,25.10
2018-08-23T08:13:13.968Z,25.50
2018-08-23T08:15:43.270Z,25.80
2018-08-23T08:18:16.887Z,25.80
2018-08-23T08:20:52.610Z,25.80
2018-08-23T08:23:21.894Z,26.00
2018-08-23T08:25:51.182Z,26.40
2018-08-23T08:28:20.427Z,26.40
2018-08-23T08:30:58.182Z,25.90
2018-08-23T08:33:32.797Z,26.20
2018-08-23T08:36:03.432Z,26.10
2018-08-23T08:38:33.310Z,26.00
2018-08-23T08:41:02.536Z,26.70
2018-08-23T08:43:31.831Z,26.80
2018-08-23T08:46:01.192Z,27.00
2018-08-23T08:48:33.519Z,27.40
2018-08-23T08:51:27.092Z,27.50
2018-08-23T08:53:56.908Z,27.70
2018-08-23T08:56:34.798Z,27.40
2018-08-23T08:59:04.123Z,26.90
2018-08-23T09:01:33.483Z,26.60
2018-08-23T09:04:02.875Z,27.20
2018-08-23T09:06:40.264Z,27.20
2018-08-23T09:09:41.809Z,27.60
2018-08-23T09:12:14.406Z,27.40
2018-08-23T09:14:43.923Z,27.40
2018-08-23T09:17:35.291Z,26.90
2018-08-23T09:20:12.065Z,27.40
2018-08-23T09:22:46.895Z,27.30
2018-08-23T09:25:27.812Z,27.60
2018-08-23T09:27:57.135Z,28.30
2018-08-23T09:30:29.531Z,28.90
2018-08-23T09:33:02.885Z,29.50
2018-08-23T09:35:33.259Z,29.00
2018-08-23T09:38:13.227Z,28.90
2018-08-23T09:40:42.689Z,29.60
2018-08-23T09:43:11.947Z,29.60
2018-08-23T09:45:41.271Z,29.70
2018-08-23T09:48:10.558Z,29.90
2018-08-23T09:50:39.883Z,29.90
2018-08-23T09:53:15.242Z,29.50
2018-08-23T09:55:47.082Z,29.20
2018-08-23T09:58:25.439Z,28.80
2018-08-23T10:01:00.579Z,29.50
2018-08-23T10:03:35.619Z,29.20
2018-08-23T10:06:10.318Z,29.70
2018-08-23T10:08:44.787Z,29.40
2018-08-23T10:11:20.917Z,29.80
2018-08-23T10:13:55.413Z,29.60
2018-08-23T10:16:29.860Z,30.10
2018-08-23T10:19:01.156Z,30.60
2018-08-23T10:21:35.656Z,30.10
2018-08-23T10:24:32.291Z,30.00
2018-08-23T10:27:01.878Z,29.40
2018-08-23T10:29:31.312Z,30.00
2018-08-23T10:32:00.610Z,29.90
2018-08-23T10:34:29.978Z,30.30
2018-08-23T10:36:59.310Z,30.40
2018-08-23T10:39:28.641Z,30.80
2018-08-23T10:41:58.009Z,30.70
2018-08-23T10:44:27.304Z,30.20
2018-08-23T10:46:57.621Z,30.20
2018-08-23T10:49:27.492Z,30.30
2018-08-23T10:51:56.710Z,30.00
2018-08-23T10:54:27.085Z,30.00
2018-08-23T10:56:56.361Z,29.70
2018-08-23T10:59:25.760Z,29.80
2018-08-23T11:01:55.007Z,29.60
2018-08-23T11:04:24.240Z,29.60
2018-08-23T11:06:58.458Z,30.30
2018-08-23T11:09:33.298Z,31.00
2018-08-23T11:12:02.704Z,30.90
2018-08-23T11:14:37.086Z,30.50
2018-08-23T11:17:11.565Z,30.60
2018-08-23T11:19:46.184Z,31.00
2018-08-23T11:22:15.463Z,31.10
2018-08-23T11:24:44.752Z,31.70
2018-08-23T11:27:14.059Z,31.80
2018-08-23T11:29:43.376Z,31.90
2018-08-23T11:32:12.625Z,31.50
2018-08-23T11:34:41.913Z,31.30
2018-08-23T11:37:11.195Z,31.20
2018-08-23T11:39:40.511Z,30.80
2018-08-23T11:42:10.091Z,30.10
2018-08-23T11:44:39.343Z,30.20
2018-08-23T11:47:12.811Z,30.00
2018-08-23T11:49:42.096Z,30.20
2018-08-23T11:52:11.345Z,30.00
2018-08-23T11:54:40.571Z,29.60
2018-08-23T11:57:09.827Z,29.90
2018-08-23T11:59:39.083Z,29.50
2018-08-23T12:02:08.326Z,29.80
2018-08-23T12:04:37.571Z,30.10
2018-08-23T12:07:06.882Z,29.90
2018-08-23T12:09:36.124Z,29.80
2018-08-23T12:12:05.627Z,29.90
2018-08-23T12:14:34.900Z,29.70
2018-08-23T12:17:04.175Z,30.00
2018-08-23T12:19:33.500Z,29.70
2018-08-23T12:22:02.723Z,29.90
2018-08-23T12:24:31.971Z,30.20
2018-08-23T12:27:01.360Z,30.30
2018-08-23T12:29:30.647Z,30.50
2018-08-23T12:31:59.990Z,30.60
2018-08-23T12:34:35.715Z,31.00
2018-08-23T12:37:10.143Z,30.70
2018-08-23T12:39:44.558Z,30.60
2018-08-23T12:42:18.893Z,30.90
2018-08-23T12:44:53.535Z,30.60
2018-08-23T12:47:22.852Z,30.90
2018-08-23T12:49:52.154Z,31.00
2018-08-23T12:52:21.372Z,30.70
2018-08-23T12:54:50.646Z,30.60
2018-08-23T12:57:19.975Z,30.70
2018-08-23T12:59:49.227Z,30.70
2018-08-23T13:02:18.638Z,30.80
2018-08-23T13:04:48.156Z,31.00
2018-08-23T13:07:17.449Z,30.90
2018-08-23T13:09:47.135Z,30.50
2018-08-23T13:12:16.897Z,30.50
2018-08-23T13:14:46.171Z,30.30
2018-08-23T13:17:15.444Z,30.50
2018-08-23T13:19:44.714Z,30.30
2018-08-23T13:22:18.255Z,30.50
2018-08-23T13:24:52.595Z,30.60
2018-08-23T13:27:21.879Z,30.00
2018-08-23T13:29:51.184Z,30.00
2018-08-23T13:32:20.490Z,30.10
2018-08-23T13:34:49.711Z,30.30
2018-08-23T13:37:18.960Z,30.10
2018-08-23T13:39:48.254Z,30.10
2018-08-23T13:42:17.670Z,29.80
2018-08-23T13:44:47.360Z,30.20
2018-08-23T13:47:16.936Z,30.70
2018-08-23T13:49:47.553Z,30.20
2018-08-23T13:52:17.012Z,30.60
2018-08-23T13:54:47.081Z,31.00
2018-08-23T13:57:16.756Z,31.00
2018-08-23T13:59:46.055Z,30.80
2018-08-23T14:02:15.436Z,30.70
2018-08-23T14:04:44.687Z,30.80
2018-08-23T14:07:14.054Z,31.00
2018-08-23T14:09:43.251Z,31.40
2018-08-23T14:12:12.543Z,31.50
2018-08-23T14:14:41.842Z,31.20
2018-08-23T14:17:11.133Z,31.30
2018-08-23T14:19:41.488Z,31.00
2018-08-23T14:22:10.811Z,30.70
2018-08-23T14:24:40.142Z,30.90
2018-08-23T14:27:09.401Z,30.70
2018-08-23T14:29:38.636Z,30.70
2018-08-23T14:32:07.971Z,30.40
2018-08-23T14:34:37.255Z,30.20
2018-08-23T14:37:06.957Z,30.40
2018-08-23T14:39:36.312Z,30.60
2018-08-23T14:42:05.757Z,30.20
2018-08-23T14:44:35.066Z,30.50
2018-08-23T14:47:09.920Z,30.10
2018-08-23T14:49:39.247Z,30.70
2018-08-23T14:52:08.512Z,30.50
2018-08-23T14:54:41.286Z,30.40
2018-08-23T14:57:15.755Z,30.50
2018-08-23T14:59:45.620Z,30.20
2018-08-23T15:02:14.838Z,30.70
2018-08-23T15:04:47.364Z,31.00
2018-08-23T15:07:17.220Z,31.10
2018-08-23T15:09:57.384Z,30.90
2018-08-23T15:12:26.703Z,30.20
2018-08-23T15:14:56.034Z,30.40
2018-08-23T15:17:25.331Z,30.80
2018-08-23T15:19:54.579Z,30.80
2018-08-23T15:22:23.858Z,31.00
2018-08-23T15:24:53.191Z,30.80
2018-08-23T15:27:22.580Z,30.90
2018-08-23T15:29:51.870Z,30.80
2018-08-23T15:32:21.147Z,30.40
2018-08-23T15:34:50.487Z,29.80
2018-08-23T15:37:21.829Z,30.20
2018-08-23T15:39:51.092Z,30.40
2018-08-23T15:42:20.393Z,30.40
2018-08-23T15:44:49.660Z,30.40
2018-08-23T15:47:18.993Z,30.50
2018-08-23T15:49:48.231Z,30.60
2018-08-23T15:52:17.522Z,30.50
2018-08-23T15:54:46.913Z,30.20
2018-08-23T15:57:18.197Z,30.10
2018-08-23T15:59:47.497Z,30.30
2018-08-23T16:02:16.817Z,29.90
2018-08-23T16:04:46.130Z,29.80
2018-08-23T16:07:16.608Z,29.90
2018-08-23T16:09:45.917Z,30.00
2018-08-23T16:12:15.180Z,30.10
2018-08-23T16:14:46.956Z,29.80
2018-08-23T16:17:21.452Z,29.80
2018-08-23T16:20:01.965Z,29.70
2018-08-23T16:22:31.239Z,29.70
2018-08-23T16:25:00.676Z,29.40
2018-08-23T16:27:29.843Z,29.40
2018-08-23T16:29:59.104Z,29.30
2018-08-23T16:32:35.304Z,28.80
2018-08-23T16:35:04.386Z,28.40
2018-08-23T16:37:34.369Z,28.40
2018-08-23T16:40:04.712Z,28.40
2018-08-23T16:42:33.933Z,28.50
2018-08-23T16:45:09.184Z,28.50
2018-08-23T16:47:38.476Z,28.70
2018-08-23T16:50:07.812Z,28.70
2018-08-23T16:52:37.431Z,28.80
2018-08-23T16:55:06.659Z,28.60
2018-08-23T16:57:35.932Z,28.50
2018-08-23T17:00:05.323Z,28.60
2018-08-23T17:02:34.597Z,28.60
2018-08-23T17:05:03.971Z,28.50
2018-08-23T17:07:33.208Z,28.50
2018-08-23T17:10:02.519Z,28.30
2018-08-23T17:12:32.131Z,28.20
2018-08-23T17:15:01.383Z,28.40
2018-08-23T17:17:34.858Z,28.40
2018-08-23T17:20:04.275Z,28.20
2018-08-23T17:22:33.582Z,27.80
2018-08-23T17:25:02.898Z,27.50
2018-08-23T17:27:32.135Z,28.00
2018-08-23T17:30:01.393Z,28.20
2018-08-23T17:32:30.663Z,28.20
2018-08-23T17:34:59.957Z,28.10
2018-08-23T17:37:29.223Z,28.00
2018-08-23T17:39:58.551Z,28.00
2018-08-23T17:42:32.915Z,28.00
2018-08-23T17:45:02.266Z,28.10
2018-08-23T17:47:31.582Z,27.80
2018-08-23T17:50:00.926Z,27.90
2018-08-23T17:52:30.267Z,27.90
2018-08-23T17:54:59.524Z,28.00
2018-08-23T17:57:29.241Z,28.10
2018-08-23T17:59:58.499Z,28.30
2018-08-23T18:02:27.762Z,28.40
2018-08-23T18:04:57.166Z,28.20
2018-08-23T18:07:26.375Z,28.00
2018-08-23T18:09:55.552Z,28.00
2018-08-23T18:12:24.868Z,27.80
2018-08-23T18:14:54.197Z,28.00
2018-08-23T18:17:23.388Z,28.00
2018-08-23T18:19:52.810Z,27.80
2018-08-23T18:22:22.037Z,27.90
2018-08-23T18:24:51.327Z,27.80
2018-08-23T18:27:20.942Z,27.70
2018-08-23T18:29:50.231Z,27.60
2018-08-23T18:32:19.527Z,27.60
2018-08-23T18:34:48.739Z,27.60
2018-08-23T18:37:18.006Z,27.60
2018-08-23T18:39:47.216Z,27.60
2018-08-23T18:42:16.469Z,27.40
2018-08-23T18:44:45.763Z,27.30
2018-08-23T18:47:15.515Z,27.30
2018-08-23T18:49:44.731Z,27.20
2018-08-23T18:52:14.111Z,27.20
2018-08-23T18:54:43.340Z,27.30
2018-08-23T18:57:12.683Z,27.20
2018-08-23T18:59:41.990Z,27.30
2018-08-23T19:02:11.663Z,27.30
2018-08-23T19:04:40.915Z,27.20
2018-08-23T19:07:15.497Z,27.20
2018-08-23T19:09:44.791Z,27.20
2018-08-23T19:12:14.024Z,27.20
2018-08-23T19:14:43.329Z,27.20
2018-08-23T19:17:17.718Z,27.20
2018-08-23T19:19:46.972Z,27.10
2018-08-23T19:22:16.295Z,27.00
2018-08-23T19:24:45.592Z,27.00
2018-08-23T19:27:15.063Z,27.00
2018-08-23T19:29:44.308Z,27.00
2018-08-23T19:32:13.919Z,27.10
2018-08-23T19:34:43.152Z,27.00
2018-08-23T19:37:12.431Z,26.70
2018-08-23T19:39:41.678Z,26.50
2018-08-23T19:42:10.879Z,26.50
2018-08-23T19:44:45.403Z,26.50
2018-08-23T19:47:19.769Z,26.40
2018-08-23T19:49:56.942Z,26.10
2018-08-23T19:52:26.247Z,26.10
2018-08-23T19:54:55.653Z,26.00
2018-08-23T19:57:24.924Z,26.10
2018-08-23T19:59:54.264Z,25.90
2018-08-23T20:02:23.487Z,26.10
2018-08-23T20:04:52.732Z,25.80
2018-08-23T20:07:21.962Z,26.00
2018-08-23T20:09:51.411Z,26.10
2018-08-23T20:12:20.670Z,26.10
2018-08-23T20:14:49.916Z,26.10
2018-08-23T20:17:19.215Z,26.20
2018-08-23T20:19:48.500Z,26.10
2018-08-23T20:22:18.151Z,25.90
2018-08-23T20:24:47.469Z,25.80
2018-08-23T20:27:17.268Z,25.60
2018-08-23T20:29:46.495Z,25.70
2018-08-23T20:32:15.765Z,25.70
2018-08-23T20:34:45.033Z,25.70
2018-08-23T20:37:14.268Z,25.80
2018-08-23T20:39:43.559Z,25.80
2018-08-23T20:42:12.831Z,25.50
2018-08-23T20:44:42.039Z,25.30
2018-08-23T20:47:11.332Z,25.40
2018-08-23T20:49:40.575Z,25.30
2018-08-23T20:52:09.841Z,25.20
2018-08-23T20:54:39.191Z,25.40
2018-08-23T20:57:08.483Z,25.40
2018-08-23T20:59:37.749Z,25.30
2018-08-23T21:02:06.996Z,25.30
2018-08-23T21:04:36.359Z,25.30
2018-08-23T21:07:05.836Z,25.00
2018-08-23T21:09:35.125Z,24.80
2018-08-23T21:12:04.488Z,25.00
2018-08-23T21:14:33.747Z,24.70
2018-08-23T21:17:03.049Z,24.70
2018-08-23T21:19:32.368Z,24.80
2018-08-23T21:22:01.850Z,24.90
2018-08-23T21:24:31.099Z,25.00
2018-08-23T21:27:01.185Z,24.90
2018-08-23T21:29:30.504Z,24.90
2018-08-23T21:31:59.727Z,24.90
2018-08-23T21:34:29.102Z,24.90
2018-08-23T21:36:58.362Z,25.00
2018-08-23T21:39:27.665Z,25.00
2018-08-23T21:41:57.012Z,24.90
2018-08-23T21:44:26.739Z,24.90
2018-08-23T21:46:56.047Z,24.90
2018-08-23T21:49:25.308Z,24.80
2018-08-23T21:51:54.606Z,24.80
2018-08-23T21:54:23.886Z,24.60
2018-08-23T21:56:53.187Z,24.10
2018-08-23T21:59:22.503Z,24.40
2018-08-23T22:01:55.896Z,24.40
2018-08-23T22:04:25.205Z,24.20
2018-08-23T22:06:54.496Z,24.40
2018-08-23T22:09:23.884Z,24.40
2018-08-23T22:11:53.127Z,24.30
2018-08-23T22:14:22.770Z,24.30
2018-08-23T22:16:52.146Z,24.00
2018-08-23T22:19:21.457Z,24.20
2018-08-23T22:21:50.822Z,23.80
2018-08-23T22:24:20.110Z,23.90
2018-08-23T22:26:49.378Z,23.90
2018-08-23T22:29:18.754Z,23.90
2018-08-23T22:31:49.514Z,23.70
2018-08-23T22:34:18.868Z,23.50
2018-08-23T22:36:48.183Z,23.40
2018-08-23T22:39:17.755Z,23.50
2018-08-23T22:41:47.120Z,23.50
2018-08-23T22:44:16.782Z,23.50
2018-08-23T22:46:46.735Z,23.10
2018-08-23T22:49:16.043Z,23.10
2018-08-23T22:51:47.468Z,23.00
2018-08-23T22:54:16.813Z,23.30
2018-08-23T22:56:46.180Z,23.50
2018-08-23T22:59:15.503Z,23.40
2018-08-23T23:01:44.846Z,23.30
2018-08-23T23:04:19.715Z,23.20
2018-08-23T23:06:49.006Z,23.20
2018-08-23T23:09:18.299Z,23.30
2018-08-23T23:11:47.675Z,23.40
2018-08-23T23:14:17.145Z,23.50
2018-08-23T23:16:46.431Z,23.60
2018-08-23T23:19:15.707Z,23.30
2018-08-23T23:21:44.974Z,23.50
2018-08-23T23:24:19.536Z,23.50
2018-08-23T23:26:48.833Z,23.30
2018-08-23T23:29:18.131Z,23.20
2018-08-23T23:31:47.362Z,23.20
2018-08-23T23:34:16.615Z,23.20
2018-08-23T23:36:45.947Z,23.30
2018-08-23T23:39:15.306Z,23.20
2018-08-23T23:41:44.615Z,23.40
2018-08-23T23:44:13.922Z,23.40
2018-08-23T23:46:43.241Z,23.40
2018-08-23T23:49:12.563Z,23.30
2018-08-23T23:51:42.915Z,23.60
2018-08-23T23:54:12.255Z,23.60
2018-08-23T23:56:41.517Z,23.50
2018-08-23T23:59:10.776Z,23.40
